Ufa, Russia
Current Conditions -  °F | °C
As of 6:00 AM on Thursday 18 Dec 2014 (Local Time) from UWUU Reporting Station
Overcast Overcast  
Wind Chill: 10°   Ceiling: 600
Heat Index: 21°   Visibility: 6mi
Dew Point: 19°   Wind: 11mph
Humidity: 93%   Direction: 190°S
Pressure: 30.36"   Gusts: NA
Location:  54.78°N, 56.04°E
Report Text: UWUU 180100Z 19005MPS 9999 OVC006 M06/M07 Q1028 14421044 TEMPO2000 SN BR OVC004 RMK QFE760/1014
Loading
Personal Weather Stations






























Interactive Weather Map New forecast layout! Learn more

10-Day Weather Forecast

Advertisements
Track Severe Weather on mobile